Time;durP1;ratioP1;P1;durP2;ratioP2;P2;SDS_P1;SDS_P2;PMS_P1;PMS_P2;Temp;Humidity;BMP_temperature;BMP_pressure;BME280_temperature;BME280_humidity;BME280_pressure;Samples;Min_cycle;Max_cycle;Signal;HPM_P1;HPM_P2
2024/01/06 00:00:01;;;;;;;12.90;12.60;;;7.00;99.90;;;;;;5036270;28;20484;-73
2024/01/06 00:02:29;;;;;;;13.50;13.20;;;7.00;99.90;;;;;;5043254;28;20460;-70
2024/01/06 00:04:56;;;;;;;13.20;12.90;;;7.00;99.90;;;;;;5046416;28;20460;-71
2024/01/06 00:07:22;;;;;;;13.70;13.40;;;7.00;99.90;;;;;;5046470;28;20467;-72
2024/01/06 00:09:49;;;;;;;13.60;13.30;;;7.00;99.90;;;;;;5038511;28;20501;-74
2024/01/06 00:12:18;;;;;;;14.00;13.60;;;7.10;99.90;;;;;;5032855;28;20468;-71
2024/01/06 00:14:45;;;;;;;14.60;14.20;;;7.10;99.90;;;;;;5043551;28;20555;-72
2024/01/06 00:17:12;;;;;;;14.50;14.10;;;7.10;99.90;;;;;;5045832;28;20457;-74
2024/01/06 00:19:40;;;;;;;14.57;14.17;;;7.10;99.90;;;;;;5043112;28;20462;-73
2024/01/06 00:22:08;;;;;;;14.20;13.80;;;7.10;99.90;;;;;;5031732;28;20495;-73
2024/01/06 00:24:36;;;;;;;14.47;14.07;;;7.20;99.90;;;;;;5035982;28;20453;-70
2024/01/06 00:27:02;;;;;;;14.37;13.97;;;7.20;99.90;;;;;;5043074;28;20959;-72
2024/01/06 00:29:29;;;;;;;14.57;14.17;;;7.10;99.90;;;;;;5040230;28;20851;-72
2024/01/06 00:31:56;;;;;;;15.60;15.10;;;7.10;99.90;;;;;;5038491;28;20459;-73
2024/01/06 00:34:23;;;;;;;14.97;14.57;;;7.10;99.90;;;;;;5042105;28;21045;-72
2024/01/06 00:36:51;;;;;;;15.50;15.07;;;7.20;99.90;;;;;;5041709;28;20882;-72
2024/01/06 00:39:18;;;;;;;14.60;14.20;;;7.10;99.90;;;;;;5041193;28;20449;-71
2024/01/06 00:41:45;;;;;;;14.67;14.27;;;7.10;99.90;;;;;;5042629;28;20476;-71
2024/01/06 00:44:13;;;;;;;14.37;13.97;;;7.10;99.90;;;;;;5037928;28;20529;-72
2024/01/06 00:46:40;;;;;;;14.67;14.27;;;7.10;99.90;;;;;;5038562;28;20460;-72
2024/01/06 00:49:07;;;;;;;15.67;15.17;;;7.10;99.90;;;;;;5045875;28;20458;-71
2024/01/06 00:51:34;;;;;;;16.73;16.23;;;7.10;99.90;;;;;;5036892;28;20555;-72
2024/01/06 00:54:02;;;;;;;17.10;16.60;;;7.20;99.90;;;;;;5040217;28;20467;-70
2024/01/06 00:56:29;;;;;;;16.73;16.23;;;7.20;99.90;;;;;;5037325;28;20461;-73
2024/01/06 00:58:56;;;;;;;16.40;15.90;;;7.20;99.90;;;;;;5043897;28;20543;-70
2024/01/06 01:01:23;;;;;;;16.43;15.93;;;7.20;99.90;;;;;;5043318;28;20498;-70
2024/01/06 01:03:50;;;;;;;16.73;16.23;;;7.20;99.90;;;;;;5045840;28;20457;-73
2024/01/06 01:06:17;;;;;;;16.03;15.53;;;7.30;99.90;;;;;;5043311;28;20472;-72
2024/01/06 01:08:44;;;;;;;16.00;15.50;;;7.20;99.90;;;;;;5039917;28;20553;-70
2024/01/06 01:11:12;;;;;;;16.57;16.07;;;7.30;99.90;;;;;;5038865;28;20496;-73
2024/01/06 01:13:39;;;;;;;17.00;16.50;;;7.30;99.90;;;;;;5036161;28;20464;-71
2024/01/06 01:16:06;;;;;;;16.03;15.53;;;7.30;99.90;;;;;;5038397;28;20490;-71
2024/01/06 01:18:33;;;;;;;17.00;16.50;;;7.30;99.90;;;;;;5045747;28;20942;-71
2024/01/06 01:21:00;;;;;;;17.37;16.77;;;7.30;99.90;;;;;;5036651;28;20812;-71
2024/01/06 01:23:26;;;;;;;18.03;17.43;;;7.30;99.90;;;;;;5039601;28;20464;-71
2024/01/06 01:25:55;;;;;;;16.97;16.47;;;7.30;99.90;;;;;;5044360;28;20547;-71
2024/01/06 01:28:25;;;;;;;17.80;17.20;;;7.40;99.90;;;;;;5034860;28;20471;-71
2024/01/06 01:30:52;;;;;;;17.40;16.80;;;7.40;99.90;;;;;;5043535;28;20472;-71
2024/01/06 01:33:19;;;;;;;17.43;16.83;;;7.40;99.90;;;;;;5043077;28;20472;-71
2024/01/06 01:35:46;;;;;;;18.07;17.47;;;7.40;99.90;;;;;;5039140;28;20986;-70
2024/01/06 01:38:13;;;;;;;18.50;17.90;;;7.40;99.90;;;;;;5038181;28;20456;-71
2024/01/06 01:40:40;;;;;;;18.20;17.60;;;7.30;99.90;;;;;;5035928;28;20473;-71
2024/01/06 01:43:07;;;;;;;17.10;16.60;;;7.40;99.90;;;;;;5040344;28;20467;-71
2024/01/06 01:45:35;;;;;;;17.47;16.87;;;7.40;99.90;;;;;;5045460;28;20455;-73
2024/01/06 01:48:02;;;;;;;17.93;17.33;;;7.30;99.90;;;;;;5045313;28;20464;-73
2024/01/06 01:50:30;;;;;;;17.63;17.03;;;7.30;99.90;;;;;;5034226;28;20463;-74
2024/01/06 01:52:58;;;;;;;18.13;17.53;;;7.30;99.90;;;;;;5036507;28;20551;-70
2024/01/06 01:55:25;;;;;;;17.63;17.03;;;7.20;99.90;;;;;;5038065;28;20476;-71
2024/01/06 01:57:53;;;;;;;17.80;17.20;;;7.30;99.90;;;;;;5036059;28;20460;-71
2024/01/06 02:00:21;;;;;;;16.83;16.33;;;7.30;99.90;;;;;;5044809;28;20452;-71
2024/01/06 02:02:50;;;;;;;16.93;16.43;;;7.30;99.90;;;;;;5044447;28;20456;-73
2024/01/06 02:05:17;;;;;;;16.37;15.87;;;7.30;99.90;;;;;;5041629;28;20472;-73
2024/01/06 02:07:44;;;;;;;17.63;17.07;;;7.30;99.90;;;;;;5042868;28;20467;-71
2024/01/06 02:10:11;;;;;;;16.87;16.37;;;7.30;99.90;;;;;;5039078;28;20518;-73
2024/01/06 02:12:38;;;;;;;16.13;15.63;;;7.30;99.90;;;;;;5048035;28;20465;-74
2024/01/06 02:15:06;;;;;;;16.57;16.07;;;7.30;99.90;;;;;;5040424;28;20827;-72
2024/01/06 02:17:33;;;;;;;17.20;16.70;;;7.30;99.90;;;;;;5036426;28;20460;-73
2024/01/06 02:20:02;;;;;;;17.00;16.50;;;7.30;99.90;;;;;;5048293;28;20448;-72
2024/01/06 02:22:30;;;;;;;17.17;16.57;;;7.30;99.90;;;;;;5045894;28;20467;-72
2024/01/06 02:24:57;;;;;;;18.10;17.50;;;7.20;99.90;;;;;;5043891;28;20470;-73
2024/01/06 02:27:25;;;;;;;18.00;17.40;;;7.30;99.90;;;;;;5048737;28;20455;-70
2024/01/06 02:29:54;;;;;;;18.20;17.60;;;7.30;99.90;;;;;;5036037;28;20733;-73
2024/01/06 02:32:21;;;;;;;17.90;17.30;;;7.30;99.90;;;;;;5046453;28;20452;-70
2024/01/06 02:34:50;;;;;;;17.37;16.77;;;7.30;99.90;;;;;;5035755;28;20479;-71
2024/01/06 02:37:19;;;;;;;17.77;17.17;;;7.30;99.90;;;;;;5042688;28;20515;-71
2024/01/06 02:39:47;;;;;;;18.10;17.50;;;7.20;99.90;;;;;;5034766;28;20963;-71
2024/01/06 02:42:14;;;;;;;16.73;16.23;;;7.20;99.90;;;;;;5037862;28;20834;-71
2024/01/06 02:44:41;;;;;;;18.10;17.50;;;7.30;99.90;;;;;;5044741;28;20473;-74
2024/01/06 02:47:08;;;;;;;17.50;16.90;;;7.20;99.90;;;;;;5047481;28;20460;-70
2024/01/06 02:49:34;;;;;;;18.20;17.60;;;7.30;99.90;;;;;;5048118;28;20539;-70
2024/01/06 02:52:01;;;;;;;18.10;17.50;;;7.30;99.90;;;;;;5042993;28;21081;-72
2024/01/06 02:54:28;;;;;;;17.27;16.73;;;7.30;99.90;;;;;;5044501;28;20468;-72
2024/01/06 02:56:56;;;;;;;17.80;17.20;;;7.30;99.90;;;;;;5042928;28;20520;-74
2024/01/06 02:59:23;;;;;;;18.20;17.60;;;7.30;99.90;;;;;;5041417;28;20467;-70
2024/01/06 03:01:50;;;;;;;18.17;17.57;;;7.30;99.90;;;;;;5042560;28;20467;-71
2024/01/06 03:04:17;;;;;;;17.80;17.20;;;7.20;99.90;;;;;;5042886;28;20457;-71
2024/01/06 03:06:43;;;;;;;17.60;17.00;;;7.20;99.90;;;;;;5047833;28;20451;-71
2024/01/06 03:09:10;;;;;;;16.43;15.93;;;7.30;99.90;;;;;;5045675;28;20484;-71
2024/01/06 03:11:37;;;;;;;17.27;16.77;;;7.20;99.90;;;;;;5036078;28;20960;-71
2024/01/06 03:14:06;;;;;;;17.10;16.60;;;7.20;99.90;;;;;;5033522;28;20852;-71
2024/01/06 03:16:34;;;;;;;15.93;15.43;;;7.10;99.90;;;;;;5036433;28;20481;-72
2024/01/06 03:19:01;;;;;;;16.07;15.57;;;7.00;99.90;;;;;;5044527;28;20484;-72
2024/01/06 03:21:28;;;;;;;16.63;16.13;;;6.90;99.90;;;;;;5044411;28;20460;-74
2024/01/06 03:23:55;;;;;;;15.83;15.33;;;6.90;99.90;;;;;;5044966;28;20469;-73
2024/01/06 03:26:23;;;;;;;16.20;15.70;;;6.90;99.90;;;;;;5033842;28;20899;-71
2024/01/06 03:28:51;;;;;;;15.53;15.03;;;6.90;99.90;;;;;;5047466;28;20480;-70
2024/01/06 03:31:22;;;;;;;16.90;16.40;;;6.80;99.90;;;;;;5043244;28;20946;-72
2024/01/06 03:33:48;;;;;;;15.57;15.07;;;6.80;99.90;;;;;;5040055;28;20460;-72
2024/01/06 03:36:16;;;;;;;15.67;15.17;;;6.90;99.90;;;;;;5036797;28;20507;-71
2024/01/06 03:38:43;;;;;;;16.00;15.50;;;6.90;99.90;;;;;;5039807;28;20462;-72
2024/01/06 03:41:10;;;;;;;15.20;14.80;;;6.80;99.90;;;;;;5044265;28;20576;-70
2024/01/06 03:43:36;;;;;;;15.20;14.80;;;6.80;99.90;;;;;;5042064;28;20834;-72
2024/01/06 03:46:06;;;;;;;14.90;14.50;;;6.80;99.90;;;;;;5046450;28;20863;-72
2024/01/06 03:48:34;;;;;;;14.80;14.40;;;6.70;99.90;;;;;;5047821;28;20454;-72
2024/01/06 03:51:04;;;;;;;15.53;15.10;;;6.80;99.90;;;;;;5046936;28;20453;-70
2024/01/06 03:53:31;;;;;;;15.23;14.83;;;6.70;99.90;;;;;;5034120;28;20464;-72
2024/01/06 03:55:58;;;;;;;15.10;14.70;;;6.80;99.90;;;;;;5038873;28;20490;-74
2024/01/06 03:58:25;;;;;;;14.57;14.17;;;6.80;99.90;;;;;;5035092;28;20463;-73
2024/01/06 04:00:52;;;;;;;15.60;15.10;;;6.80;99.90;;;;;;5046695;28;20448;-71
2024/01/06 04:03:18;;;;;;;14.03;13.63;;;6.80;99.90;;;;;;5046896;28;20449;-71
2024/01/06 04:05:46;;;;;;;14.00;13.60;;;6.70;99.90;;;;;;5046871;28;20460;-72
2024/01/06 04:08:13;;;;;;;14.27;13.87;;;6.70;99.90;;;;;;5040439;28;20822;-74
2024/01/06 04:10:41;;;;;;;15.80;15.30;;;6.70;99.90;;;;;;5043786;28;20464;-73
2024/01/06 04:13:08;;;;;;;13.70;13.33;;;6.70;99.90;;;;;;5041277;28;20464;-71
2024/01/06 04:15:35;;;;;;;13.70;13.30;;;6.70;99.90;;;;;;5039521;28;20484;-72
2024/01/06 04:18:04;;;;;;;12.93;12.63;;;6.40;99.90;;;;;;5039989;28;20482;-73
2024/01/06 04:20:31;;;;;;;13.40;13.10;;;6.30;99.90;;;;;;5041408;28;21025;-70
2024/01/06 04:22:59;;;;;;;13.30;13.00;;;6.10;99.90;;;;;;5038652;28;20464;-70
2024/01/06 04:25:26;;;;;;;12.70;12.40;;;6.00;99.90;;;;;;5033922;28;20457;-72
2024/01/06 04:27:53;;;;;;;13.27;12.97;;;5.90;99.90;;;;;;5030722;28;20471;-72
2024/01/06 04:30:20;;;;;;;12.77;12.47;;;5.80;99.90;;;;;;5038988;28;20541;-70
2024/01/06 04:32:48;;;;;;;12.80;12.50;;;5.80;99.90;;;;;;5038837;28;20674;-70
2024/01/06 04:35:15;;;;;;;13.83;13.43;;;5.80;99.90;;;;;;5041017;28;20462;-73
2024/01/06 04:37:42;;;;;;;13.80;13.40;;;5.80;99.90;;;;;;5033711;28;20467;-71
2024/01/06 04:40:11;;;;;;;14.20;13.80;;;5.80;99.90;;;;;;5045943;28;20456;-73
2024/01/06 04:42:38;;;;;;;13.73;13.33;;;5.70;99.90;;;;;;5049970;28;20460;-71
2024/01/06 04:45:06;;;;;;;14.93;14.53;;;5.70;99.90;;;;;;5051110;28;20448;-73
2024/01/06 04:47:33;;;;;;;14.80;14.40;;;5.70;99.90;;;;;;5050989;28;20452;-72
2024/01/06 04:50:00;;;;;;;15.50;15.00;;;5.70;99.90;;;;;;5050759;28;20543;-73
2024/01/06 04:52:27;;;;;;;15.60;15.10;;;5.70;99.90;;;;;;5050981;28;20681;-72
2024/01/06 04:54:54;;;;;;;15.70;15.20;;;5.80;99.90;;;;;;5050543;28;20465;-72
2024/01/06 04:57:22;;;;;;;16.67;16.17;;;5.70;99.90;;;;;;5049182;28;20483;-72
2024/01/06 04:59:49;;;;;;;16.60;16.10;;;5.60;99.90;;;;;;5049935;28;20797;-71
2024/01/06 05:05:37;;;;;;;16.30;15.80;;;5.50;99.90;;;;;;5050638;28;20771;-72
2024/01/06 05:08:05;;;;;;;16.10;15.60;;;5.50;99.90;;;;;;5050670;28;20445;-73
2024/01/06 05:10:31;;;;;;;16.00;15.50;;;5.40;99.90;;;;;;5050763;28;20941;-71
2024/01/06 05:13:00;;;;;;;15.30;14.80;;;5.40;99.90;;;;;;5049513;28;20459;-71
2024/01/06 05:15:27;;;;;;;15.17;14.67;;;5.30;99.90;;;;;;5051295;28;20442;-72
2024/01/06 05:17:54;;;;;;;15.40;14.90;;;5.30;99.90;;;;;;5049285;28;20458;-73
2024/01/06 05:20:21;;;;;;;15.23;14.73;;;5.30;99.90;;;;;;5051034;28;20887;-72
2024/01/06 05:22:48;;;;;;;15.10;14.60;;;5.30;99.90;;;;;;5050434;28;20455;-72
2024/01/06 05:25:15;;;;;;;14.47;14.07;;;5.20;99.90;;;;;;5048979;28;20785;-73
2024/01/06 05:27:41;;;;;;;14.50;14.10;;;5.20;99.90;;;;;;5050251;28;20650;-75
2024/01/06 05:30:10;;;;;;;14.53;14.13;;;5.20;99.90;;;;;;5049373;28;20482;-73
2024/01/06 05:35:59;;;;;;;14.90;14.50;;;5.20;99.90;;;;;;5049524;28;20988;-74
2024/01/06 05:38:26;;;;;;;14.67;14.27;;;5.30;99.90;;;;;;5049577;28;21341;-73
2024/01/06 05:40:53;;;;;;;14.70;14.30;;;5.30;99.90;;;;;;5048132;28;20484;-72
2024/01/06 05:43:20;;;;;;;13.37;12.97;;;5.20;99.90;;;;;;5041173;28;20505;-73
2024/01/06 05:45:48;;;;;;;14.20;13.80;;;5.20;99.90;;;;;;5041725;28;20496;-71
2024/01/06 05:48:15;;;;;;;14.50;14.10;;;5.20;99.90;;;;;;5046739;28;20464;-73
2024/01/06 05:50:42;;;;;;;14.20;13.80;;;5.20;99.90;;;;;;5042354;28;20457;-71
2024/01/06 05:53:10;;;;;;;14.03;13.63;;;5.20;99.90;;;;;;5040959;28;20468;-72
2024/01/06 05:55:37;;;;;;;13.50;13.10;;;5.20;99.90;;;;;;5049393;28;21294;-74
2024/01/06 05:58:04;;;;;;;14.60;14.20;;;5.20;99.90;;;;;;5043138;28;20460;-74
2024/01/06 06:00:32;;;;;;;14.40;14.00;;;5.20;99.90;;;;;;5041667;28;20464;-71
2024/01/06 06:03:00;;;;;;;14.80;14.40;;;5.10;99.90;;;;;;5039330;28;20503;-71
2024/01/06 06:05:27;;;;;;;14.00;13.60;;;5.20;99.90;;;;;;5048049;28;20475;-71
2024/01/06 06:07:54;;;;;;;12.83;12.53;;;5.10;99.90;;;;;;5043695;28;20723;-71
2024/01/06 06:10:21;;;;;;;13.90;13.50;;;5.10;99.90;;;;;;5047631;28;20967;-71
2024/01/06 06:12:48;;;;;;;14.00;13.60;;;5.10;99.90;;;;;;5048056;28;20511;-71
2024/01/06 06:15:15;;;;;;;13.03;12.73;;;5.10;99.90;;;;;;5042794;28;20511;-71
2024/01/06 06:17:42;;;;;;;13.47;13.07;;;5.10;99.90;;;;;;5040372;28;20569;-71
2024/01/06 06:20:11;;;;;;;12.97;12.67;;;5.10;99.90;;;;;;5034413;28;21114;-72
2024/01/06 06:22:39;;;;;;;12.80;12.50;;;5.00;99.90;;;;;;5042090;28;20459;-71
2024/01/06 06:25:08;;;;;;;13.00;12.70;;;5.00;99.90;;;;;;5040410;28;20459;-71
2024/01/06 06:27:35;;;;;;;12.50;12.20;;;5.00;99.90;;;;;;5041956;28;20494;-71
2024/01/06 06:30:02;;;;;;;11.80;11.50;;;4.90;99.90;;;;;;5037365;28;20579;-71
2024/01/06 06:32:29;;;;;;;11.63;11.33;;;4.90;99.90;;;;;;5043492;28;20535;-71
2024/01/06 06:34:55;;;;;;;11.60;11.30;;;4.90;99.90;;;;;;5038740;28;20825;-71
2024/01/06 06:37:23;;;;;;;10.10;9.90;;;4.90;99.90;;;;;;5037257;28;20492;-72
2024/01/06 06:39:50;;;;;;;9.63;9.43;;;5.00;99.90;;;;;;5046912;28;20450;-71
2024/01/06 06:42:17;;;;;;;9.33;9.13;;;4.90;99.90;;;;;;5048884;28;20471;-71
2024/01/06 06:44:43;;;;;;;8.70;8.60;;;4.90;99.90;;;;;;5043620;28;20704;-71
2024/01/06 06:47:10;;;;;;;8.30;8.20;;;4.80;99.90;;;;;;5043651;28;20460;-71
2024/01/06 06:49:37;;;;;;;8.37;8.27;;;4.80;99.90;;;;;;5038712;28;20460;-71
2024/01/06 06:52:06;;;;;;;6.80;6.70;;;4.80;99.90;;;;;;5046782;28;20465;-71
2024/01/06 06:54:36;;;;;;;6.70;6.60;;;4.80;99.90;;;;;;5048382;28;20491;-71
2024/01/06 06:57:04;;;;;;;6.40;6.30;;;4.70;99.90;;;;;;5048300;28;20487;-72
2024/01/06 06:59:30;;;;;;;6.13;6.03;;;4.70;99.90;;;;;;5045726;28;20515;-72
2024/01/06 07:01:57;;;;;;;5.70;5.60;;;4.80;99.90;;;;;;5039919;28;20679;-71
2024/01/06 07:04:25;;;;;;;5.00;5.00;;;4.70;99.90;;;;;;5046600;28;20483;-72
2024/01/06 07:06:52;;;;;;;5.07;5.07;;;4.60;99.90;;;;;;5044978;28;20458;-72
2024/01/06 07:09:21;;;;;;;5.77;5.67;;;4.70;99.90;;;;;;5040508;28;20691;-72
2024/01/06 07:11:50;;;;;;;4.97;4.97;;;4.70;99.90;;;;;;5047932;28;20453;-71
2024/01/06 07:14:17;;;;;;;5.30;5.20;;;4.60;99.90;;;;;;5041579;28;20822;-72
2024/01/06 07:16:44;;;;;;;5.40;5.30;;;4.60;99.90;;;;;;5036756;28;20774;-72
2024/01/06 07:19:11;;;;;;;5.00;5.00;;;4.60;99.90;;;;;;5043367;28;20476;-71
2024/01/06 07:21:38;;;;;;;4.83;4.83;;;4.70;99.90;;;;;;5035005;28;20818;-72
2024/01/06 07:24:05;;;;;;;4.93;4.93;;;4.70;99.90;;;;;;5044958;28;20995;-71
2024/01/06 07:26:32;;;;;;;5.03;5.03;;;4.70;99.90;;;;;;5044251;28;20470;-71
2024/01/06 07:29:00;;;;;;;4.70;4.70;;;4.60;99.90;;;;;;5047544;28;20488;-71
2024/01/06 07:31:27;;;;;;;4.37;4.37;;;4.60;99.90;;;;;;5038579;28;20472;-72
2024/01/06 07:33:55;;;;;;;4.33;4.33;;;4.50;99.90;;;;;;5033608;28;20936;-71
2024/01/06 07:36:22;;;;;;;4.33;4.33;;;4.60;99.90;;;;;;5032679;28;20573;-71
2024/01/06 07:38:49;;;;;;;4.73;4.73;;;4.50;99.90;;;;;;5035980;28;20524;-72
2024/01/06 07:41:16;;;;;;;4.43;4.43;;;4.50;99.90;;;;;;5038576;28;20565;-71
2024/01/06 07:43:43;;;;;;;4.50;4.50;;;4.50;99.90;;;;;;5041520;28;20469;-72
2024/01/06 07:46:12;;;;;;;4.37;4.37;;;4.50;99.90;;;;;;5037795;28;20781;-72
2024/01/06 07:48:38;;;;;;;4.60;4.60;;;4.50;99.90;;;;;;5046761;28;20459;-72
2024/01/06 07:51:06;;;;;;;4.50;4.50;;;4.50;99.90;;;;;;5046845;28;20472;-72
2024/01/06 07:53:34;;;;;;;4.40;4.40;;;4.40;99.90;;;;;;5034141;28;20543;-72
2024/01/06 07:56:00;;;;;;;4.60;4.60;;;4.50;99.90;;;;;;5040997;28;20457;-71
2024/01/06 07:58:28;;;;;;;4.20;4.20;;;4.50;99.90;;;;;;5038729;28;20500;-71
2024/01/06 08:00:55;;;;;;;4.23;4.23;;;4.50;99.90;;;;;;5042704;28;20581;-72
2024/01/06 08:03:24;;;;;;;4.70;4.70;;;4.60;99.90;;;;;;5038807;28;20465;-72
2024/01/06 08:05:51;;;;;;;4.57;4.57;;;4.60;99.90;;;;;;5039805;28;20563;-72
2024/01/06 08:08:19;;;;;;;4.63;4.63;;;4.70;99.90;;;;;;5037204;28;20463;-71
2024/01/06 08:10:48;;;;;;;4.37;4.37;;;4.70;99.90;;;;;;5039398;28;20814;-72
2024/01/06 08:13:15;;;;;;;4.67;4.67;;;4.70;99.90;;;;;;5029489;28;20487;-72
2024/01/06 08:15:42;;;;;;;4.53;4.53;;;4.80;99.90;;;;;;5038000;28;20460;-72
2024/01/06 08:18:09;;;;;;;4.63;4.63;;;4.90;99.90;;;;;;5033702;28;20484;-71
2024/01/06 08:20:37;;;;;;;5.30;5.20;;;4.90;99.90;;;;;;5044193;28;20456;-72
2024/01/06 08:23:04;;;;;;;6.00;5.90;;;5.00;99.90;;;;;;5046072;28;20453;-71
2024/01/06 08:25:32;;;;;;;6.10;6.00;;;5.00;99.90;;;;;;5041814;28;20478;-71
2024/01/06 08:28:00;;;;;;;6.13;6.03;;;5.10;99.90;;;;;;5032740;28;20809;-72
2024/01/06 08:30:27;;;;;;;6.13;6.03;;;5.10;99.90;;;;;;5036083;28;20870;-71
2024/01/06 08:32:54;;;;;;;5.57;5.47;;;5.10;99.90;;;;;;5040115;28;20457;-71
2024/01/06 08:35:21;;;;;;;6.10;6.00;;;5.10;99.90;;;;;;5036779;28;20474;-72
2024/01/06 08:37:49;;;;;;;5.50;5.40;;;5.20;99.90;;;;;;5045600;28;20485;-72
2024/01/06 08:40:16;;;;;;;5.77;5.67;;;5.20;99.90;;;;;;5035172;28;20471;-72
2024/01/06 08:42:44;;;;;;;5.70;5.60;;;5.20;99.90;;;;;;5041991;28;20476;-72
2024/01/06 08:45:11;;;;;;;6.27;6.17;;;5.20;99.90;;;;;;5039058;28;20552;-72
2024/01/06 08:47:38;;;;;;;6.03;5.93;;;5.20;99.90;;;;;;5044022;28;20460;-72
2024/01/06 08:50:06;;;;;;;5.40;5.30;;;5.30;99.90;;;;;;5043903;28;20464;-71
2024/01/06 08:52:32;;;;;;;6.10;6.00;;;5.20;99.90;;;;;;5035128;28;20457;-72
2024/01/06 08:55:01;;;;;;;5.80;5.70;;;5.30;99.90;;;;;;5030375;28;20974;-72
2024/01/06 08:57:28;;;;;;;6.70;6.60;;;5.30;99.90;;;;;;5040250;28;20972;-72
2024/01/06 08:59:55;;;;;;;6.93;6.83;;;5.40;99.90;;;;;;5042277;28;20457;-72
2024/01/06 09:02:22;;;;;;;7.07;6.97;;;5.50;99.90;;;;;;5044134;28;20455;-71
2024/01/06 09:04:50;;;;;;;7.30;7.20;;;5.50;99.90;;;;;;5032759;28;20485;-72
2024/01/06 09:07:17;;;;;;;6.83;6.73;;;5.60;99.90;;;;;;5038314;28;20471;-72
2024/01/06 09:09:43;;;;;;;6.60;6.50;;;5.60;99.90;;;;;;5032569;28;20490;-71
2024/01/06 09:12:12;;;;;;;6.73;6.63;;;5.50;99.90;;;;;;5031806;28;20457;-72
2024/01/06 09:14:40;;;;;;;6.30;6.20;;;5.50;99.90;;;;;;5030406;28;21844;-71
2024/01/06 09:17:07;;;;;;;6.40;6.30;;;5.40;99.90;;;;;;5036524;28;20480;-72
2024/01/06 09:19:34;;;;;;;5.97;5.87;;;5.40;99.90;;;;;;5044993;28;20460;-71
2024/01/06 09:22:02;;;;;;;6.13;6.03;;;5.40;99.90;;;;;;5041269;28;20463;-71
2024/01/06 09:24:29;;;;;;;5.60;5.50;;;5.40;99.90;;;;;;5042848;28;20856;-72
2024/01/06 09:26:56;;;;;;;5.70;5.60;;;5.30;99.90;;;;;;5032298;28;20554;-72
2024/01/06 09:29:24;;;;;;;5.53;5.43;;;5.30;99.90;;;;;;5027723;28;20485;-72
2024/01/06 09:31:52;;;;;;;4.83;4.83;;;5.30;99.90;;;;;;5032660;28;20526;-72
2024/01/06 09:34:18;;;;;;;5.47;5.37;;;5.30;99.90;;;;;;5035431;28;20460;-72
2024/01/06 09:36:46;;;;;;;5.60;5.50;;;5.30;99.90;;;;;;5036489;28;20451;-72
2024/01/06 09:39:12;;;;;;;5.37;5.27;;;5.40;99.90;;;;;;5034601;28;21024;-71
2024/01/06 09:41:39;;;;;;;5.60;5.50;;;5.40;99.90;;;;;;5035829;28;20567;-71
2024/01/06 09:44:06;;;;;;;5.70;5.60;;;5.30;99.90;;;;;;5043956;28;20459;-71
2024/01/06 09:46:37;;;;;;;5.77;5.67;;;5.30;99.90;;;;;;5037035;28;20460;-72
2024/01/06 09:49:05;;;;;;;5.83;5.73;;;5.40;99.90;;;;;;5033484;28;20492;-72
2024/01/06 09:51:31;;;;;;;6.20;6.10;;;5.40;99.90;;;;;;5043044;28;20534;-72
2024/01/06 09:54:00;;;;;;;5.93;5.83;;;5.50;99.90;;;;;;5037830;28;20814;-72
2024/01/06 09:56:27;;;;;;;5.60;5.50;;;5.50;99.90;;;;;;5032284;28;20488;-71
2024/01/06 09:58:55;;;;;;;6.40;6.30;;;5.50;99.90;;;;;;5042855;28;20490;-71
2024/01/06 10:01:23;;;;;;;5.90;5.80;;;5.50;99.90;;;;;;5038969;28;20452;-71
2024/01/06 10:03:51;;;;;;;5.80;5.70;;;5.50;99.90;;;;;;5041943;28;20474;-71
2024/01/06 10:06:20;;;;;;;6.17;6.07;;;5.50;99.90;;;;;;5035885;28;20480;-71
2024/01/06 10:08:50;;;;;;;5.97;5.87;;;5.50;99.90;;;;;;5032943;28;20541;-72
2024/01/06 10:11:17;;;;;;;6.00;5.90;;;5.50;99.90;;;;;;5039903;28;20744;-72
2024/01/06 10:13:44;;;;;;;5.63;5.53;;;5.50;99.90;;;;;;5034508;28;20781;-72
2024/01/06 10:16:11;;;;;;;5.70;5.60;;;5.50;99.90;;;;;;5038605;28;20823;-71
2024/01/06 10:18:38;;;;;;;5.23;5.13;;;5.50;99.90;;;;;;5032642;28;20492;-71
2024/01/06 10:21:06;;;;;;;5.50;5.40;;;5.40;99.90;;;;;;5038594;28;20463;-71
2024/01/06 10:23:34;;;;;;;5.50;5.40;;;5.40;99.90;;;;;;5033788;28;20469;-71
2024/01/06 10:26:01;;;;;;;5.37;5.27;;;5.60;99.90;;;;;;5038352;28;20453;-71
2024/01/06 10:28:28;;;;;;;5.33;5.23;;;5.40;99.90;;;;;;5027908;28;20462;-72
2024/01/06 10:30:56;;;;;;;5.30;5.20;;;5.40;99.90;;;;;;5040866;28;20468;-71
2024/01/06 10:33:24;;;;;;;5.43;5.33;;;5.30;99.90;;;;;;5039696;28;20469;-70
2024/01/06 10:35:51;;;;;;;5.27;5.17;;;5.40;99.90;;;;;;5037291;28;20464;-72
2024/01/06 10:38:19;;;;;;;5.80;5.70;;;5.50;99.90;;;;;;5034766;28;20861;-71
2024/01/06 10:40:59;;;;;;;5.60;5.50;;;5.40;99.90;;;;;;5032463;28;21002;-72
2024/01/06 10:43:28;;;;;;;5.33;5.23;;;5.40;99.90;;;;;;5047375;28;20459;-71
2024/01/06 10:45:57;;;;;;;5.20;5.10;;;5.50;99.90;;;;;;5043055;28;20461;-71
2024/01/06 10:48:26;;;;;;;5.30;5.20;;;5.40;99.90;;;;;;5034372;28;20736;-71
2024/01/06 10:50:54;;;;;;;5.00;5.00;;;5.30;99.90;;;;;;5038626;28;20546;-70
2024/01/06 10:53:24;;;;;;;4.30;4.30;;;5.20;99.90;;;;;;5034817;28;20456;-71
2024/01/06 10:55:52;;;;;;;4.40;4.40;;;5.00;99.90;;;;;;5036710;28;20457;-71
2024/01/06 10:58:19;;;;;;;4.30;4.30;;;5.00;99.90;;;;;;5038956;28;20493;-71
2024/01/06 11:00:47;;;;;;;4.13;4.13;;;5.00;99.90;;;;;;5040574;28;20499;-71
2024/01/06 11:03:15;;;;;;;4.00;4.00;;;5.00;99.90;;;;;;5038647;28;20452;-71
2024/01/06 11:05:43;;;;;;;4.00;4.00;;;5.00;99.90;;;;;;5046418;28;20970;-71
2024/01/06 11:08:12;;;;;;;4.60;4.60;;;4.80;99.90;;;;;;5037613;28;20565;-71
2024/01/06 11:10:41;;;;;;;4.03;4.03;;;4.70;99.90;;;;;;5046853;28;20495;-70
2024/01/06 11:13:11;;;;;;;3.60;3.60;;;4.70;99.90;;;;;;5043120;28;20463;-71
2024/01/06 11:15:45;;;;;;;3.80;3.80;;;4.70;99.90;;;;;;5034934;28;20534;-71
2024/01/06 11:18:34;;;;;;;3.57;3.57;;;4.70;99.90;;;;;;5039760;28;20977;-70
2024/01/06 11:21:18;;;;;;;3.40;3.40;;;4.70;99.90;;;;;;5033811;28;20463;-71
2024/01/06 11:23:46;;;;;;;3.33;3.33;;;4.80;99.90;;;;;;5042672;28;20832;-71
2024/01/06 11:26:15;;;;;;;3.07;3.07;;;4.70;99.90;;;;;;5034317;28;20506;-71
2024/01/06 11:28:46;;;;;;;3.37;3.37;;;4.70;99.90;;;;;;5032859;28;20459;-70
2024/01/06 11:31:13;;;;;;;3.50;3.50;;;4.70;99.90;;;;;;5038288;28;20677;-71
2024/01/06 11:33:43;;;;;;;3.60;3.60;;;4.70;99.90;;;;;;5035208;28;20560;-71
2024/01/06 11:36:10;;;;;;;3.60;3.60;;;4.70;99.90;;;;;;5034627;28;20559;-71
2024/01/06 11:38:40;;;;;;;3.00;3.00;;;4.70;99.90;;;;;;5035537;28;20488;-70
2024/01/06 11:41:10;;;;;;;2.83;2.83;;;4.60;99.90;;;;;;5035688;28;20494;-71
2024/01/06 11:43:40;;;;;;;2.83;2.83;;;4.60;99.90;;;;;;5040115;28;20845;-71
2024/01/06 11:46:09;;;;;;;2.70;2.70;;;4.50;99.90;;;;;;5043565;28;20455;-70
2024/01/06 11:48:38;;;;;;;2.60;2.60;;;4.40;99.90;;;;;;5045823;28;20552;-71
2024/01/06 11:51:05;;;;;;;2.50;2.50;;;4.40;99.90;;;;;;5038030;28;20493;-71
2024/01/06 11:53:32;;;;;;;2.57;2.57;;;4.40;99.90;;;;;;5031564;28;20459;-70
2024/01/06 11:56:02;;;;;;;2.50;2.50;;;4.40;99.90;;;;;;5038162;28;20464;-70
2024/01/06 11:58:29;;;;;;;2.70;2.70;;;4.30;99.90;;;;;;5046179;28;20483;-71
2024/01/06 12:01:00;;;;;;;2.40;2.40;;;4.30;99.90;;;;;;5038012;28;20800;-72
2024/01/06 12:03:28;;;;;;;2.30;2.30;;;4.40;99.90;;;;;;5031949;28;20898;-71
2024/01/06 12:06:02;;;;;;;2.70;2.70;;;4.40;99.90;;;;;;5039547;28;20456;-71
2024/01/06 12:08:30;;;;;;;2.83;2.83;;;4.40;99.90;;;;;;5037410;28;20488;-71
2024/01/06 12:11:03;;;;;;;2.67;2.67;;;4.40;99.90;;;;;;5045197;28;20801;-70
2024/01/06 12:13:30;;;;;;;2.83;2.83;;;4.20;99.90;;;;;;5036283;28;21461;-72
2024/01/06 12:15:59;;;;;;;3.60;3.60;;;4.20;99.90;;;;;;5040105;28;20472;-70
2024/01/06 12:18:26;;;;;;;3.33;3.33;;;4.30;99.90;;;;;;5019734;28;20499;-71
2024/01/06 12:20:54;;;;;;;3.83;3.83;;;4.20;99.90;;;;;;5024614;28;20473;-70
2024/01/06 12:23:27;;;;;;;3.90;3.90;;;4.10;99.90;;;;;;5025641;28;20812;-70
2024/01/06 12:25:54;;;;;;;4.20;4.20;;;4.10;99.90;;;;;;5027393;28;20488;-70
2024/01/06 12:28:21;;;;;;;4.30;4.30;;;4.10;99.90;;;;;;5037842;28;20457;-71
2024/01/06 12:30:48;;;;;;;4.27;4.27;;;4.10;99.90;;;;;;5036137;28;20811;-69
2024/01/06 12:33:18;;;;;;;4.70;4.70;;;4.10;99.90;;;;;;5028600;28;20464;-70
2024/01/06 12:35:45;;;;;;;4.30;4.30;;;4.00;99.90;;;;;;5040699;28;20486;-69
2024/01/06 12:38:13;;;;;;;3.93;3.93;;;3.90;99.90;;;;;;5036413;28;20489;-70
2024/01/06 12:40:40;;;;;;;4.40;4.40;;;3.90;99.90;;;;;;5045754;28;20472;-70
2024/01/06 12:43:07;;;;;;;4.70;4.70;;;4.00;99.90;;;;;;5044648;28;20672;-70
2024/01/06 12:45:34;;;;;;;5.80;5.70;;;3.90;99.90;;;;;;5037924;28;20489;-70
2024/01/06 12:48:01;;;;;;;6.23;6.13;;;3.90;99.90;;;;;;5044347;28;20457;-70
2024/01/06 12:50:29;;;;;;;6.50;6.40;;;3.90;99.90;;;;;;5042220;28;21088;-70
2024/01/06 12:52:56;;;;;;;6.07;5.97;;;3.80;99.90;;;;;;5034747;28;20937;-70